Upstream stations:
SHEF ID: TIFM7 Elk River near Tiff City, Mo
STATION TYPE:
Regulating: Stage = 15.00, Flow = 21304
PRECIP STAGE STAGE(2) RIV-FLOW BAT-LOAD
in ft ft cfs volt
Ccp-Rev Ccp-Rev Ccp-Rev Ccp-Rev Ccp-Rev
(US/Central)
04/07 00:00 0.00 5.57 5.54 1753 11.59
04/07 01:00 0.00 5.56 5.55 1742 11.56
04/07 02:00 0.00 5.55 5.52 1731 11.54
04/07 03:00 0.00 5.54 5.52 1720 11.54
04/07 04:00 0.00 5.53 5.50 1710 11.58
04/07 05:00 0.00 5.51 5.49 1689 11.57
04/07 06:00 0.00 5.51 5.48 1689 11.53
04/07 07:00 0.00 5.49 5.47 1668 11.48
04/07 08:00 0.00 5.48 5.46 1657 11.59
04/07 09:00 0.00 5.47 5.45 1647 12.57
04/07 10:00 0.00 5.46 5.43 1636 12.70
04/07 11:00 0.00 5.45 5.42 1626 12.79
04/07 12:00 0.00 5.45 5.41 1626 12.83
04/07 13:00 0.00 5.42 5.40 1595 12.86
04/07 14:00 0.00 5.42 5.40 1595 12.82
04/07 15:00 0.00 5.41 5.37 1585 12.47
04/07 16:00 0.00 5.40 5.36 1575 12.37
04/07 17:00 0.00 5.38 5.34 1555 12.36
04/07 18:00 0.00 5.38 5.33 1555 12.30
04/07 19:00 0.00 5.36 5.33 1535 12.22
04/07 20:00 0.00 5.35 5.33 1525 12.01
04/07 21:00 0.00 5.34 5.30 1515 11.71
04/07 22:00 0.00 5.33 5.31 1505 11.61
04/07 23:00 0.00 5.32 5.30 1495 11.62